Time;durP1;ratioP1;P1;durP2;ratioP2;P2;SDS_P1;SDS_P2;PMS_P1;PMS_P2;Temp;Humidity;BMP_temperature;BMP_pressure;BME280_temperature;BME280_humidity;BME280_pressure;Samples;Min_cycle;Max_cycle;Signal;HPM_P1;HPM_P2
2021/08/09 00:00:39;;;;;;;7.68;6.18;;;25.50;99.90;;;;;;5031886;28;20438;-70
2021/08/09 00:03:06;;;;;;;9.13;6.38;;;25.40;99.90;;;;;;5030204;28;20029;-70
2021/08/09 00:05:33;;;;;;;15.45;5.95;;;25.40;99.90;;;;;;5030136;28;20021;-70
2021/08/09 00:08:00;;;;;;;6.25;5.45;;;25.30;99.90;;;;;;5031754;28;20017;-69
2021/08/09 00:10:27;;;;;;;7.90;5.55;;;25.30;99.90;;;;;;5030391;28;20164;-70
2021/08/09 00:12:57;;;;;;;8.07;6.65;;;25.30;99.90;;;;;;5031586;28;20306;-70
2021/08/09 00:15:24;;;;;;;6.53;5.57;;;25.30;99.90;;;;;;5030280;28;20084;-70
2021/08/09 00:17:50;;;;;;;12.15;6.22;;;25.20;99.90;;;;;;5031533;28;20025;-69
2021/08/09 00:20:16;;;;;;;7.35;5.50;;;25.10;99.90;;;;;;5031638;28;20087;-68
2021/08/09 00:22:42;;;;;;;14.82;5.90;;;25.20;99.90;;;;;;5029905;28;20033;-69
2021/08/09 00:25:09;;;;;;;10.57;5.53;;;25.20;99.90;;;;;;5029930;28;20025;-71
2021/08/09 00:27:35;;;;;;;8.10;4.93;;;25.30;99.90;;;;;;5031705;28;20032;-70
2021/08/09 00:30:00;;;;;;;9.07;6.18;;;25.20;99.90;;;;;;5030050;28;20021;-70
2021/08/09 00:32:26;;;;;;;13.90;6.28;;;25.30;99.90;;;;;;5029964;28;20026;-71
2021/08/09 00:34:52;;;;;;;6.88;5.18;;;25.30;99.90;;;;;;5030085;28;20461;-71
2021/08/09 00:37:18;;;;;;;7.70;6.35;;;25.30;99.90;;;;;;5030918;28;20034;-72
2021/08/09 00:39:44;;;;;;;8.23;5.88;;;25.30;99.90;;;;;;5034320;28;20395;-71
2021/08/09 00:42:10;;;;;;;12.88;5.82;;;25.30;99.90;;;;;;5035577;28;20025;-70
2021/08/09 00:44:36;;;;;;;12.38;7.05;;;25.20;99.90;;;;;;5035013;28;20018;-71
2021/08/09 00:47:03;;;;;;;10.52;5.38;;;25.20;99.90;;;;;;5031664;28;20017;-70
2021/08/09 00:49:29;;;;;;;13.10;5.55;;;25.20;99.90;;;;;;5031898;28;20100;-71
2021/08/09 00:51:56;;;;;;;13.57;6.18;;;25.10;99.90;;;;;;5031273;28;20029;-71
2021/08/09 00:54:24;;;;;;;9.73;6.57;;;25.10;99.90;;;;;;5029739;28;20331;-71
2021/08/09 00:56:50;;;;;;;13.80;6.75;;;25.10;99.90;;;;;;5029600;28;20120;-71
2021/08/09 00:59:16;;;;;;;10.15;5.38;;;25.10;99.90;;;;;;5029822;28;20029;-71
2021/08/09 01:01:42;;;;;;;10.13;5.60;;;25.10;99.90;;;;;;5030185;28;20079;-71
2021/08/09 01:04:09;;;;;;;14.07;6.97;;;25.10;99.90;;;;;;5030166;28;20491;-71
2021/08/09 01:06:35;;;;;;;10.38;5.88;;;25.10;99.90;;;;;;5031068;28;20094;-70
2021/08/09 01:09:21;;;;;;;11.30;6.97;;;25.20;99.90;;;;;;5029290;28;20375;-69
2021/08/09 01:12:03;;;;;;;7.57;5.90;;;25.20;99.90;;;;;;5030814;28;20037;-70
2021/08/09 01:14:37;;;;;;;;;;;25.20;99.90;;;;;;5031243;28;20066;-69
2021/08/09 01:17:05;;;;;;;7.60;5.70;;;25.20;99.90;;;;;;5030811;28;19906;-70
2021/08/09 01:19:55;;;;;;;17.27;6.93;;;25.20;99.90;;;;;;5029169;28;20041;-70
2021/08/09 01:22:21;;;;;;;10.90;6.28;;;25.10;99.90;;;;;;5030534;28;20036;-68
2021/08/09 01:25:16;;;;;;;6.03;5.20;;;25.10;99.90;;;;;;5030473;28;20060;-70
2021/08/09 01:27:47;;;;;;;13.85;6.68;;;25.10;99.90;;;;;;5014161;28;20060;-70
2021/08/09 01:30:14;;;;;;;10.00;6.63;;;25.10;99.90;;;;;;5029114;28;20025;-70
2021/08/09 01:32:43;;;;;;;20.33;6.60;;;25.10;99.90;;;;;;5030512;28;20196;-70
2021/08/09 01:35:11;;;;;;;7.70;6.55;;;25.10;99.90;;;;;;5030497;28;20030;-70
2021/08/09 01:37:40;;;;;;;10.52;6.65;;;25.10;99.90;;;;;;5028685;28;20124;-72
2021/08/09 01:40:08;;;;;;;12.52;6.47;;;25.00;99.90;;;;;;5028903;28;20110;-69
2021/08/09 01:42:35;;;;;;;9.10;6.25;;;25.00;99.90;;;;;;5030314;28;20021;-71
2021/08/09 01:45:01;;;;;;;8.05;4.82;;;24.90;99.90;;;;;;5028847;28;20032;-70
2021/08/09 01:47:27;;;;;;;8.35;5.75;;;24.90;99.90;;;;;;5029068;28;20071;-68
2021/08/09 01:49:54;;;;;;;8.07;6.35;;;24.90;99.90;;;;;;5029940;28;20029;-70
2021/08/09 01:52:20;;;;;;;12.68;5.95;;;24.90;99.90;;;;;;5028604;28;20022;-70
2021/08/09 01:54:48;;;;;;;9.68;6.10;;;24.90;99.90;;;;;;5030127;28;20051;-70
2021/08/09 01:57:14;;;;;;;15.05;7.25;;;25.00;99.90;;;;;;5029979;28;20040;-70
2021/08/09 01:59:40;;;;;;;8.23;6.10;;;24.90;99.90;;;;;;5028374;28;20030;-70
2021/08/09 02:02:06;;;;;;;9.80;6.10;;;24.90;99.90;;;;;;5028690;28;20101;-69
2021/08/09 02:04:32;;;;;;;11.98;6.50;;;24.80;99.90;;;;;;5029817;28;20085;-69
2021/08/09 02:06:58;;;;;;;7.45;5.53;;;24.90;99.90;;;;;;5029979;28;20029;-71
2021/08/09 02:09:24;;;;;;;8.18;6.22;;;24.90;99.90;;;;;;5029851;28;20021;-71
2021/08/09 02:12:16;;;;;;;11.00;5.70;;;24.90;99.90;;;;;;5028437;28;20367;-68
2021/08/09 02:14:46;;;;;;;;;;;24.90;99.90;;;;;;5027588;28;20171;-70
2021/08/09 02:17:17;;;;;;;9.60;7.18;;;24.80;99.90;;;;;;5033634;28;19962;-70
2021/08/09 02:20:00;;;;;;;9.20;5.63;;;24.80;99.90;;;;;;5032227;28;20026;-70
2021/08/09 02:22:37;;;;;;;11.73;6.30;;;24.80;99.90;;;;;;5032295;28;20026;-71
2021/08/09 02:25:12;;;;;;;12.70;6.10;;;24.80;99.90;;;;;;5033693;28;20022;-70
2021/08/09 02:28:04;;;;;;;10.00;5.70;;;24.80;99.90;;;;;;5033215;28;20030;-71
2021/08/09 02:30:30;;;;;;;9.98;5.93;;;24.80;99.90;;;;;;5026817;28;20029;-71
2021/08/09 02:33:00;;;;;;;11.02;5.80;;;24.80;99.90;;;;;;5032099;28;20075;-71
2021/08/09 02:35:27;;;;;;;8.55;5.53;;;24.80;99.90;;;;;;5032515;28;20390;-71
2021/08/09 02:37:54;;;;;;;8.75;6.32;;;24.80;99.90;;;;;;5031966;28;20045;-71
2021/08/09 02:40:21;;;;;;;15.90;6.03;;;24.70;99.90;;;;;;5032429;28;20065;-71
2021/08/09 02:42:48;;;;;;;9.60;5.00;;;24.80;99.90;;;;;;5032084;28;20029;-71
2021/08/09 02:45:14;;;;;;;11.98;5.60;;;24.70;99.90;;;;;;5033550;28;20423;-70
2021/08/09 02:47:40;;;;;;;8.25;6.05;;;24.70;99.90;;;;;;5031936;28;20029;-71
2021/08/09 02:50:10;;;;;;;10.32;5.55;;;24.70;99.90;;;;;;5031889;28;20026;-70
2021/08/09 02:52:38;;;;;;;9.70;5.90;;;24.70;99.90;;;;;;5033174;28;20033;-70
2021/08/09 02:55:06;;;;;;;11.93;5.70;;;24.60;99.90;;;;;;5031757;28;20068;-71
2021/08/09 02:57:33;;;;;;;8.57;5.95;;;24.60;99.90;;;;;;5031605;28;20112;-71
2021/08/09 02:59:59;;;;;;;9.27;5.82;;;24.70;99.90;;;;;;5032995;28;20427;-71
2021/08/09 03:02:29;;;;;;;7.60;5.20;;;24.60;99.90;;;;;;5032929;28;20029;-71
2021/08/09 03:04:57;;;;;;;7.63;5.50;;;24.60;99.90;;;;;;5032721;28;20426;-70
2021/08/09 03:07:25;;;;;;;10.90;5.10;;;24.60;99.90;;;;;;5033096;28;20472;-70
2021/08/09 03:09:51;;;;;;;8.68;4.93;;;24.60;99.90;;;;;;5031526;28;20040;-70
2021/08/09 03:12:18;;;;;;;7.80;5.22;;;24.50;99.90;;;;;;5031412;28;20026;-71
2021/08/09 03:14:50;;;;;;;11.00;6.38;;;24.60;99.90;;;;;;5032665;28;20035;-71
2021/08/09 03:17:17;;;;;;;10.05;6.15;;;24.50;99.90;;;;;;5032688;28;20124;-71
2021/08/09 03:19:43;;;;;;;10.50;5.88;;;24.60;99.90;;;;;;5032359;28;20037;-71
2021/08/09 03:22:11;;;;;;;7.18;6.13;;;24.50;99.90;;;;;;5032682;28;20032;-71
2021/08/09 03:24:38;;;;;;;7.63;5.70;;;24.50;99.90;;;;;;5031406;28;20021;-71
2021/08/09 03:27:04;;;;;;;7.90;5.25;;;24.50;99.90;;;;;;5031356;28;20025;-71
2021/08/09 03:29:31;;;;;;;7.25;5.88;;;24.50;99.90;;;;;;5032432;28;20391;-69
2021/08/09 03:31:57;;;;;;;12.48;6.10;;;24.50;99.90;;;;;;5032429;28;20036;-71
2021/08/09 03:34:23;;;;;;;8.23;5.63;;;24.50;99.90;;;;;;5032504;28;20384;-72
2021/08/09 03:36:51;;;;;;;9.25;5.72;;;24.50;99.90;;;;;;5032608;28;20029;-71
2021/08/09 03:39:17;;;;;;;12.38;5.95;;;24.50;99.90;;;;;;5031096;28;20072;-70
2021/08/09 03:41:43;;;;;;;11.13;7.07;;;24.40;99.90;;;;;;5032413;28;20022;-69
2021/08/09 03:44:09;;;;;;;11.65;6.43;;;24.40;99.90;;;;;;5032323;28;20025;-69
2021/08/09 03:46:35;;;;;;;13.70;6.80;;;24.50;99.90;;;;;;5032281;28;20056;-70
2021/08/09 03:49:04;;;;;;;10.13;6.00;;;24.50;99.90;;;;;;5030684;28;20116;-70
2021/08/09 03:51:31;;;;;;;8.57;6.57;;;24.50;99.90;;;;;;5032144;28;20017;-69
2021/08/09 03:53:57;;;;;;;11.30;6.85;;;24.40;99.90;;;;;;5032332;28;20033;-72
2021/08/09 03:56:23;;;;;;;11.93;6.63;;;24.40;99.90;;;;;;5030909;28;20564;-70
2021/08/09 03:58:48;;;;;;;11.77;7.28;;;24.40;99.90;;;;;;5030540;28;20109;-71
2021/08/09 04:01:15;;;;;;;7.82;5.95;;;24.40;99.90;;;;;;5032184;28;20025;-71
2021/08/09 04:03:40;;;;;;;14.02;7.03;;;24.40;99.90;;;;;;5030107;28;20030;-71
2021/08/09 04:06:06;;;;;;;13.70;7.63;;;24.40;99.90;;;;;;5032350;28;20044;-70
2021/08/09 04:08:32;;;;;;;9.93;7.22;;;24.40;99.90;;;;;;5031751;28;20541;-71
2021/08/09 04:10:58;;;;;;;13.07;7.72;;;24.40;99.90;;;;;;5030934;28;20060;-71
2021/08/09 04:13:23;;;;;;;9.73;8.20;;;24.50;99.90;;;;;;5030927;28;20030;-71
2021/08/09 04:15:49;;;;;;;10.23;8.50;;;24.40;99.90;;;;;;5032260;28;20031;-71
2021/08/09 04:18:15;;;;;;;12.57;8.02;;;24.50;99.90;;;;;;5030332;28;20031;-71
2021/08/09 04:20:41;;;;;;;9.43;7.57;;;24.50;99.90;;;;;;5031674;28;20044;-72
2021/08/09 04:23:07;;;;;;;17.52;8.15;;;24.50;99.90;;;;;;5031736;28;20034;-71
2021/08/09 04:25:33;;;;;;;11.48;8.38;;;24.40;99.90;;;;;;5031809;28;20018;-70
2021/08/09 04:28:01;;;;;;;16.05;8.88;;;24.40;99.90;;;;;;5030468;28;20056;-71
2021/08/09 04:30:27;;;;;;;18.73;9.20;;;24.50;99.90;;;;;;5031033;28;20507;-71
2021/08/09 04:32:53;;;;;;;12.50;8.60;;;24.50;99.90;;;;;;5030128;28;20160;-70
2021/08/09 04:35:19;;;;;;;9.57;8.65;;;24.50;99.90;;;;;;5030109;28;20032;-71
2021/08/09 04:37:45;;;;;;;14.15;8.57;;;24.50;99.90;;;;;;5030966;28;20052;-70
2021/08/09 04:40:12;;;;;;;10.18;9.02;;;24.50;99.90;;;;;;5029365;28;20083;-70
2021/08/09 04:42:38;;;;;;;15.93;8.48;;;24.60;99.90;;;;;;5031035;28;20086;-70
2021/08/09 04:45:04;;;;;;;12.07;8.90;;;24.60;99.90;;;;;;5031189;28;20045;-70
2021/08/09 04:47:30;;;;;;;14.35;9.55;;;24.70;99.90;;;;;;5029448;28;20299;-69
2021/08/09 04:49:55;;;;;;;10.65;9.18;;;24.70;99.90;;;;;;5031390;28;20155;-70
2021/08/09 04:52:21;;;;;;;10.52;9.30;;;24.70;99.90;;;;;;5030466;28;20087;-71
2021/08/09 04:54:47;;;;;;;10.02;9.05;;;24.80;99.90;;;;;;5031181;28;20024;-71
2021/08/09 04:57:12;;;;;;;12.60;9.25;;;24.90;99.90;;;;;;5030261;28;20029;-71
2021/08/09 04:59:38;;;;;;;13.80;10.20;;;24.90;99.90;;;;;;5030957;28;20083;-71
2021/08/09 05:02:04;;;;;;;18.05;14.65;;;25.00;99.90;;;;;;5031244;28;20026;-71
2021/08/09 05:04:30;;;;;;;11.38;9.85;;;25.00;99.90;;;;;;5031398;28;20029;-68
2021/08/09 05:06:55;;;;;;;13.40;9.23;;;25.00;99.90;;;;;;5031506;28;20033;-71
2021/08/09 05:09:21;;;;;;;13.88;10.13;;;25.10;99.90;;;;;;5031303;28;20344;-71
2021/08/09 05:11:47;;;;;;;13.60;9.98;;;25.00;99.90;;;;;;5031269;28;20095;-70
2021/08/09 05:14:13;;;;;;;15.05;11.65;;;25.10;99.90;;;;;;5029754;28;20091;-71
2021/08/09 05:16:40;;;;;;;15.63;10.55;;;25.10;99.90;;;;;;5030112;28;20112;-71
2021/08/09 05:19:07;;;;;;;19.10;11.75;;;25.10;99.90;;;;;;5030982;28;20029;-71
2021/08/09 05:21:34;;;;;;;14.10;11.57;;;25.10;99.90;;;;;;5030099;28;20056;-71
2021/08/09 05:24:08;;;;;;;15.90;11.30;;;25.20;99.90;;;;;;5029508;28;20028;-70
2021/08/09 05:26:34;;;;;;;13.52;11.80;;;25.20;99.90;;;;;;5030827;28;20372;-70
2021/08/09 05:29:01;;;;;;;22.35;13.95;;;25.20;99.90;;;;;;5030606;28;20021;-70
2021/08/09 05:31:28;;;;;;;14.80;13.25;;;25.30;99.90;;;;;;5031505;28;20087;-70
2021/08/09 05:33:57;;;;;;;16.48;12.80;;;25.30;99.90;;;;;;5031166;28;20025;-71
2021/08/09 05:36:23;;;;;;;20.60;15.43;;;25.30;99.90;;;;;;5031144;28;20550;-70
2021/08/09 05:38:49;;;;;;;22.50;15.68;;;25.30;99.90;;;;;;5030253;28;20025;-71
2021/08/09 05:41:15;;;;;;;23.38;17.65;;;25.30;99.90;;;;;;5030843;28;20026;-70
2021/08/09 05:43:41;;;;;;;26.85;17.65;;;25.30;99.90;;;;;;5031585;28;20032;-70
2021/08/09 05:46:06;;;;;;;29.00;21.92;;;25.30;99.90;;;;;;5035588;28;20080;-71
2021/08/09 05:48:34;;;;;;;21.92;19.63;;;25.30;99.90;;;;;;5035081;28;20024;-72
2021/08/09 05:50:59;;;;;;;25.88;21.65;;;25.30;99.90;;;;;;5037408;28;20052;-70
2021/08/09 05:53:27;;;;;;;29.25;21.10;;;25.30;99.90;;;;;;5036284;28;20037;-71
2021/08/09 05:55:54;;;;;;;25.77;21.67;;;25.40;99.90;;;;;;5034378;28;20060;-71
2021/08/09 05:58:20;;;;;;;23.20;20.73;;;25.50;99.90;;;;;;5034314;28;20060;-73
2021/08/09 06:00:46;;;;;;;23.98;21.50;;;25.60;99.90;;;;;;5035489;28;20026;-70
2021/08/09 06:03:18;;;;;;;26.13;23.63;;;25.50;99.90;;;;;;5033651;28;20147;-70
2021/08/09 06:05:45;;;;;;;24.27;21.65;;;25.50;99.90;;;;;;5033039;28;20052;-71
2021/08/09 06:08:11;;;;;;;27.95;25.02;;;25.60;99.90;;;;;;5033103;28;20048;-71
2021/08/09 06:10:37;;;;;;;25.67;21.65;;;25.60;99.90;;;;;;5033617;28;20025;-71
2021/08/09 06:13:03;;;;;;;26.55;21.98;;;25.70;99.90;;;;;;5034028;28;20030;-72
2021/08/09 06:15:29;;;;;;;30.20;24.67;;;25.70;99.90;;;;;;5034736;28;20044;-71
2021/08/09 06:17:54;;;;;;;27.25;22.45;;;25.80;99.90;;;;;;5032973;28;20442;-71
2021/08/09 06:20:20;;;;;;;25.42;22.80;;;25.80;99.90;;;;;;5034599;28;20308;-69
2021/08/09 06:22:46;;;;;;;25.15;21.58;;;25.90;99.90;;;;;;5034422;28;20097;-73
2021/08/09 06:25:12;;;;;;;36.00;25.45;;;26.00;99.90;;;;;;5032839;28;20506;-69
2021/08/09 06:27:39;;;;;;;25.98;21.02;;;26.00;99.90;;;;;;5033851;28;20037;-70
2021/08/09 06:30:06;;;;;;;23.95;21.27;;;26.10;99.90;;;;;;5032943;28;20430;-70
2021/08/09 06:32:32;;;;;;;25.40;19.38;;;26.20;99.90;;;;;;5033744;28;20022;-70
2021/08/09 06:34:58;;;;;;;22.58;20.33;;;26.20;99.90;;;;;;5033541;28;20029;-70
2021/08/09 06:37:23;;;;;;;22.38;19.70;;;26.20;99.90;;;;;;5033593;28;20095;-69
2021/08/09 06:39:49;;;;;;;28.27;21.30;;;26.20;99.90;;;;;;5031902;28;20458;-70
2021/08/09 06:42:15;;;;;;;26.42;19.58;;;26.30;99.90;;;;;;5033019;28;20451;-69
2021/08/09 06:44:41;;;;;;;22.55;19.17;;;26.40;99.90;;;;;;5033274;28;20028;-69
2021/08/09 06:47:06;;;;;;;23.17;19.77;;;26.40;99.90;;;;;;5031966;28;20021;-70
2021/08/09 06:49:32;;;;;;;27.13;19.40;;;26.50;99.90;;;;;;5033078;28;20057;-69
2021/08/09 06:51:58;;;;;;;28.08;18.10;;;26.60;99.90;;;;;;5031726;28;20103;-71
2021/08/09 06:54:25;;;;;;;18.75;16.77;;;26.60;99.90;;;;;;5031612;28;20025;-70
2021/08/09 06:56:51;;;;;;;19.48;16.52;;;26.60;99.90;;;;;;5032971;28;20113;-70
2021/08/09 06:59:18;;;;;;;19.02;16.27;;;26.70;99.90;;;;;;5032685;28;20029;-70
2021/08/09 07:01:44;;;;;;;17.17;14.27;;;26.70;99.90;;;;;;5030945;28;20507;-70
2021/08/09 07:04:10;;;;;;;24.85;15.98;;;26.70;99.90;;;;;;5033347;28;20464;-70
2021/08/09 07:06:36;;;;;;;18.92;15.70;;;26.60;99.90;;;;;;5031433;28;20067;-69
2021/08/09 07:09:03;;;;;;;23.90;16.08;;;26.60;99.90;;;;;;5032834;28;20097;-69
2021/08/09 07:11:29;;;;;;;19.10;15.43;;;26.60;99.90;;;;;;5032836;28;20049;-70
2021/08/09 07:13:55;;;;;;;23.35;15.52;;;26.80;99.90;;;;;;5031727;28;20021;-70
2021/08/09 07:16:24;;;;;;;19.40;14.63;;;26.80;99.90;;;;;;5031890;28;20502;-69
2021/08/09 07:18:50;;;;;;;15.88;13.85;;;26.90;99.90;;;;;;5033277;28;20499;-69
2021/08/09 07:21:16;;;;;;;16.80;14.30;;;26.90;99.90;;;;;;5031358;28;20037;-69
2021/08/09 07:23:42;;;;;;;20.73;17.13;;;26.90;99.90;;;;;;5031517;28;20029;-70
2021/08/09 07:26:09;;;;;;;27.00;20.05;;;26.90;99.90;;;;;;5031109;28;20029;-70
2021/08/09 07:28:34;;;;;;;23.50;17.70;;;26.90;99.90;;;;;;5031089;28;20356;-71
2021/08/09 07:31:00;;;;;;;14.50;12.38;;;27.00;99.90;;;;;;5033067;28;20017;-71
2021/08/09 07:33:26;;;;;;;18.38;15.90;;;27.00;99.90;;;;;;5031284;28;20056;-69
2021/08/09 07:35:52;;;;;;;16.98;12.35;;;27.00;99.90;;;;;;5032688;28;20028;-69
2021/08/09 07:38:18;;;;;;;18.42;13.05;;;27.00;99.90;;;;;;5030778;28;20488;-69
2021/08/09 07:40:44;;;;;;;14.60;12.13;;;27.10;99.90;;;;;;5032456;28;20036;-70
2021/08/09 07:43:10;;;;;;;19.75;13.00;;;27.10;99.90;;;;;;5032380;28;20116;-69
2021/08/09 07:45:36;;;;;;;17.15;12.13;;;27.10;99.90;;;;;;5030837;28;20116;-70
2021/08/09 07:48:03;;;;;;;12.10;10.90;;;27.20;99.90;;;;;;5032438;28;20100;-70
2021/08/09 07:50:29;;;;;;;13.57;11.35;;;27.10;99.90;;;;;;5031922;28;20026;-70
2021/08/09 07:52:55;;;;;;;17.77;12.25;;;27.20;99.90;;;;;;5030450;28;20098;-69
2021/08/09 07:55:21;;;;;;;18.50;14.50;;;27.20;99.90;;;;;;5032134;28;20052;-70
2021/08/09 07:57:47;;;;;;;23.05;14.35;;;27.30;99.90;;;;;;5031900;28;20029;-70
2021/08/09 08:00:14;;;;;;;20.88;14.60;;;27.40;99.90;;;;;;5030957;28;20022;-70
2021/08/09 08:02:40;;;;;;;26.63;16.35;;;27.40;99.90;;;;;;5032074;28;20049;-70
2021/08/09 08:05:06;;;;;;;16.63;14.88;;;27.40;99.90;;;;;;5031744;28;20029;-71
2021/08/09 08:07:32;;;;;;;15.70;13.55;;;27.50;99.90;;;;;;5031706;28;20409;-70
2021/08/09 08:10:01;;;;;;;16.75;13.15;;;27.70;99.90;;;;;;5030357;28;20480;-70
2021/08/09 08:12:27;;;;;;;17.40;13.13;;;27.70;99.90;;;;;;5031572;28;20032;-71
2021/08/09 08:14:53;;;;;;;13.40;11.65;;;27.70;99.90;;;;;;5030348;28;20022;-70
2021/08/09 08:17:18;;;;;;;13.90;12.18;;;27.90;99.90;;;;;;5031841;28;20033;-70
2021/08/09 08:19:44;;;;;;;14.48;11.52;;;27.80;99.90;;;;;;5029975;28;20502;-70
2021/08/09 08:22:10;;;;;;;13.82;12.30;;;27.80;99.90;;;;;;5031544;28;20059;-69
2021/08/09 08:24:36;;;;;;;24.98;21.60;;;27.80;99.90;;;;;;5031734;28;20067;-71
2021/08/09 08:27:01;;;;;;;20.70;12.57;;;27.90;99.90;;;;;;5031484;28;20028;-71
2021/08/09 08:29:27;;;;;;;15.70;10.65;;;28.00;99.90;;;;;;5030041;28;20021;-69
2021/08/09 08:31:53;;;;;;;12.63;10.05;;;28.10;99.90;;;;;;5032195;28;20030;-71
2021/08/09 08:34:19;;;;;;;19.33;13.60;;;28.00;99.90;;;;;;5030711;28;20026;-69
2021/08/09 08:36:45;;;;;;;20.75;10.95;;;27.90;99.90;;;;;;5030478;28;20034;-70
2021/08/09 08:39:11;;;;;;;14.63;11.20;;;28.00;99.90;;;;;;5031808;28;20025;-70
2021/08/09 08:41:41;;;;;;;11.63;9.77;;;28.00;99.90;;;;;;5031391;28;20036;-69
2021/08/09 08:44:07;;;;;;;13.85;9.43;;;28.00;99.90;;;;;;5031333;28;20032;-70
2021/08/09 08:46:37;;;;;;;11.77;9.77;;;28.10;99.90;;;;;;5031516;28;20092;-69
2021/08/09 08:49:03;;;;;;;10.45;8.20;;;28.20;99.90;;;;;;5030973;28;20018;-69
2021/08/09 08:51:30;;;;;;;12.05;8.05;;;28.20;99.90;;;;;;5031242;28;20021;-69
2021/08/09 08:53:56;;;;;;;12.38;8.63;;;28.40;99.90;;;;;;5030809;28;20048;-69
2021/08/09 08:56:22;;;;;;;17.00;9.85;;;28.40;99.90;;;;;;5031122;28;20096;-69
2021/08/09 08:58:47;;;;;;;12.40;10.63;;;28.40;99.90;;;;;;5029347;28;20578;-69
2021/08/09 09:01:33;;;;;;;10.30;7.78;;;28.50;99.90;;;;;;5029587;28;20037;-70
2021/08/09 09:03:59;;;;;;;17.02;9.10;;;28.60;99.90;;;;;;5029725;28;20338;-69
2021/08/09 09:06:24;;;;;;;15.30;7.95;;;28.70;99.90;;;;;;5029286;28;20021;-70
2021/08/09 09:08:50;;;;;;;10.27;8.52;;;28.90;99.90;;;;;;5031249;28;20371;-70
2021/08/09 09:11:22;;;;;;;11.77;8.27;;;28.90;99.90;;;;;;5030759;28;20023;-70
2021/08/09 09:14:02;;;;;;;11.73;8.30;;;28.90;99.90;;;;;;5030703;28;20044;-71
2021/08/09 09:16:55;;;;;;;12.43;7.30;;;29.00;99.90;;;;;;5029314;28;20029;-71
2021/08/09 09:19:39;;;;;;;8.23;7.30;;;29.10;99.90;;;;;;5029592;28;20037;-71
2021/08/09 09:22:18;;;;;;;12.95;9.07;;;29.20;99.90;;;;;;5030599;28;20021;-69
2021/08/09 09:24:49;;;;;;;13.02;8.70;;;29.10;99.90;;;;;;5029835;28;20024;-69
2021/08/09 09:27:33;;;;;;;13.52;9.32;;;29.10;99.90;;;;;;5030491;28;20119;-69
2021/08/09 09:30:00;;;;;;;14.75;9.45;;;29.10;99.90;;;;;;5029436;28;20116;-70
2021/08/09 09:32:26;;;;;;;10.30;9.25;;;29.10;99.90;;;;;;5030441;28;20029;-71
2021/08/09 09:34:56;;;;;;;11.45;8.10;;;29.20;99.90;;;;;;5030283;28;20064;-70
2021/08/09 09:37:30;;;;;;;12.57;9.63;;;29.30;99.90;;;;;;5029154;28;20029;-71
2021/08/09 09:40:11;;;;;;;11.30;8.30;;;29.50;99.90;;;;;;5030373;28;20025;-70
2021/08/09 09:42:39;;;;;;;14.88;9.55;;;29.50;99.90;;;;;;5030096;28;20104;-70
2021/08/09 10:01:36;;;;;;;;;;;29.60;99.90;;;;;;5030713;28;20179;-70
2021/08/09 10:04:02;;;;;;;15.38;10.02;;;29.50;99.90;;;;;;5029248;28;20003;-70
2021/08/09 10:06:28;;;;;;;13.50;10.13;;;29.30;99.90;;;;;;5030593;28;20025;-70
2021/08/09 10:08:55;;;;;;;16.27;9.43;;;29.20;99.90;;;;;;5031591;28;20450;-69
2021/08/09 10:11:22;;;;;;;11.35;9.95;;;29.00;99.90;;;;;;5035801;28;20025;-70
2021/08/09 10:13:49;;;;;;;14.00;10.43;;;28.90;99.90;;;;;;5034204;28;20036;-70
2021/08/09 10:16:14;;;;;;;14.32;9.02;;;28.80;99.90;;;;;;5031832;28;20025;-70
2021/08/09 10:18:49;;;;;;;14.27;9.20;;;28.80;99.90;;;;;;5030248;28;20112;-69
2021/08/09 10:21:15;;;;;;;14.27;10.38;;;28.80;99.90;;;;;;5030514;28;20116;-69
2021/08/09 10:23:48;;;;;;;11.35;8.32;;;28.60;99.90;;;;;;5030400;28;20113;-70
2021/08/09 10:26:26;;;;;;;11.30;9.15;;;28.60;99.90;;;;;;5029244;28;20029;-70
2021/08/09 10:28:55;;;;;;;11.82;8.57;;;28.80;99.90;;;;;;5030036;28;20021;-69
2021/08/09 10:31:25;;;;;;;19.83;12.85;;;28.90;99.90;;;;;;5030527;28;20112;-69
2021/08/09 10:33:52;;;;;;;22.60;12.40;;;29.10;99.90;;;;;;5029894;28;20029;-69
2021/08/09 10:36:22;;;;;;;10.52;9.50;;;28.90;99.90;;;;;;5031444;28;20183;-69
2021/08/09 10:38:53;;;;;;;15.07;11.13;;;28.80;99.90;;;;;;5032011;28;20033;-69
2021/08/09 10:41:27;;;;;;;11.55;9.25;;;28.70;99.90;;;;;;5033612;28;20072;-69
2021/08/09 10:44:05;;;;;;;12.15;10.40;;;28.50;99.90;;;;;;5033509;28;20029;-70
2021/08/09 10:46:40;;;;;;;13.88;9.85;;;28.60;99.90;;;;;;5032442;28;20484;-70
2021/08/09 10:49:30;;;;;;;14.60;9.93;;;28.70;99.90;;;;;;5033856;28;20520;-69
2021/08/09 10:51:55;;;;;;;13.07;10.45;;;28.70;99.90;;;;;;5030320;28;20549;-70
2021/08/09 10:54:28;;;;;;;12.25;10.02;;;28.60;99.90;;;;;;5033424;28;20037;-71
2021/08/09 10:56:55;;;;;;;14.95;10.80;;;28.50;99.90;;;;;;5032247;28;20025;-69
2021/08/09 10:59:41;;;;;;;12.93;9.40;;;28.60;99.90;;;;;;5031871;28;20403;-69
2021/08/09 11:02:36;;;;;;;12.73;9.60;;;28.60;99.90;;;;;;5033224;28;20029;-69
2021/08/09 11:05:14;;;;;;;10.00;8.95;;;28.40;99.90;;;;;;5023311;28;20483;-69
2021/08/09 11:07:42;;;;;;;12.93;9.27;;;28.30;99.90;;;;;;5033107;28;20028;-71
2021/08/09 11:10:08;;;;;;;9.90;9.02;;;28.30;99.90;;;;;;5033112;28;20056;-70
2021/08/09 11:12:58;;;;;;;11.73;8.98;;;28.20;99.90;;;;;;5032204;28;20075;-70
2021/08/09 11:15:24;;;;;;;10.68;8.57;;;28.20;99.90;;;;;;5032913;28;20028;-70
2021/08/09 11:17:55;;;;;;;10.80;8.10;;;28.10;99.90;;;;;;5032824;28;20534;-69
2021/08/09 11:20:23;;;;;;;15.50;8.75;;;28.20;99.90;;;;;;5031472;28;20120;-70
2021/08/09 11:23:10;;;;;;;11.15;7.85;;;28.10;99.90;;;;;;5033092;28;20029;-69
2021/08/09 11:25:48;;;;;;;15.38;9.10;;;28.20;99.90;;;;;;5032114;28;20029;-70
2021/08/09 11:28:19;;;;;;;12.95;8.60;;;28.20;99.90;;;;;;5031819;28;20048;-71
2021/08/09 11:30:50;;;;;;;9.07;7.40;;;28.30;99.90;;;;;;5033316;28;20068;-71
2021/08/09 11:33:35;;;;;;;12.50;8.75;;;28.40;99.90;;;;;;5031852;28;20025;-70
2021/08/09 11:36:15;;;;;;;10.93;8.07;;;28.40;99.90;;;;;;5031992;28;20033;-71
2021/08/09 11:38:42;;;;;;;12.50;8.98;;;28.50;99.90;;;;;;5031886;28;20033;-70
2021/08/09 11:41:14;;;;;;;10.23;8.18;;;28.60;99.90;;;;;;5032246;28;20033;-69
2021/08/09 11:43:39;;;;;;;;;;;28.70;99.90;;;;;;5031774;28;20175;-69
2021/08/09 11:46:11;;;;;;;11.50;10.23;;;28.80;99.90;;;;;;5032758;28;20371;-70
2021/08/09 11:48:38;;;;;;;10.80;7.05;;;28.70;99.90;;;;;;5030295;28;20415;-70
2021/08/09 11:51:09;;;;;;;14.00;8.40;;;28.90;99.90;;;;;;5032980;28;20337;-70
2021/08/09 11:53:38;;;;;;;14.93;7.22;;;28.80;99.90;;;;;;5032975;28;20029;-70
2021/08/09 11:56:14;;;;;;;14.23;7.20;;;28.90;99.90;;;;;;5033266;28;20260;-70
2021/08/09 11:58:41;;;;;;;9.90;6.80;;;28.90;99.90;;;;;;5032571;28;20040;-70
2021/08/09 12:01:07;;;;;;;10.77;6.57;;;29.10;99.90;;;;;;5031037;28;20079;-70
2021/08/09 12:03:34;;;;;;;9.73;8.18;;;29.20;99.90;;;;;;5031269;28;20494;-70
2021/08/09 12:06:21;;;;;;;13.85;7.28;;;29.30;99.90;;;;;;5031124;28;20030;-71
2021/08/09 12:08:55;;;;;;;9.90;7.18;;;29.20;99.90;;;;;;5031074;28;20460;-70
2021/08/09 12:11:32;;;;;;;10.98;7.03;;;29.20;99.90;;;;;;5032165;28;20072;-70
2021/08/09 12:14:07;;;;;;;10.23;7.82;;;29.30;99.90;;;;;;5030673;28;20522;-69
2021/08/09 12:16:46;;;;;;;8.02;6.88;;;29.50;99.90;;;;;;5032278;28;20344;-70
2021/08/09 12:19:13;;;;;;;11.55;8.18;;;29.40;99.90;;;;;;5031494;28;20104;-72
2021/08/09 12:21:40;;;;;;;13.30;8.25;;;29.20;99.90;;;;;;5031831;28;20049;-68
2021/08/09 12:24:15;;;;;;;10.00;8.93;;;28.90;99.90;;;;;;5032009;28;20118;-72
2021/08/09 12:26:40;;;;;;;18.48;9.10;;;28.80;99.90;;;;;;5031840;28;20053;-69
2021/08/09 12:29:06;;;;;;;15.43;9.82;;;28.70;99.90;;;;;;5032110;28;20030;-70
2021/08/09 12:31:45;;;;;;;14.98;8.82;;;28.70;99.90;;;;;;5032094;28;20021;-69
2021/08/09 12:34:12;;;;;;;12.02;7.85;;;28.80;99.90;;;;;;5030573;28;20144;-68
2021/08/09 12:36:38;;;;;;;13.57;8.05;;;28.80;99.90;;;;;;5030788;28;20430;-70
2021/08/09 12:39:06;;;;;;;9.25;8.02;;;28.60;99.90;;;;;;5030498;28;20086;-70
2021/08/09 12:41:33;;;;;;;8.23;7.43;;;28.60;99.90;;;;;;5030729;28;20025;-72
2021/08/09 12:44:04;;;;;;;10.35;7.15;;;28.60;99.90;;;;;;5031496;28;20052;-70
2021/08/09 12:46:32;;;;;;;10.27;7.30;;;28.60;99.90;;;;;;5030387;28;20485;-69
2021/08/09 12:48:58;;;;;;;11.38;7.47;;;28.60;99.90;;;;;;5030429;28;20032;-71
2021/08/09 12:51:24;;;;;;;10.88;7.35;;;28.60;99.90;;;;;;5031526;28;20022;-69
2021/08/09 12:53:50;;;;;;;14.90;7.13;;;28.50;99.90;;;;;;5030404;28;20557;-69
2021/08/09 12:56:16;;;;;;;10.60;7.35;;;28.50;99.90;;;;;;5030069;28;20029;-71
2021/08/09 12:58:42;;;;;;;15.75;6.82;;;28.50;99.90;;;;;;5029576;28;20038;-69